sensor_id;sensor_type;location;lat;lon;timestamp;temperature;humidity
22491;DHT22;11412;50.802;4.350;2023-03-01T00:01:50;1.80;99.90
22491;DHT22;11412;50.802;4.350;2023-03-01T00:04:16;1.90;99.90
22491;DHT22;11412;50.802;4.350;2023-03-01T00:06:45;1.90;99.90
22491;DHT22;11412;50.802;4.350;2023-03-01T00:09:14;1.90;99.90
22491;DHT22;11412;50.802;4.350;2023-03-01T00:11:40;1.90;99.90
22491;DHT22;11412;50.802;4.350;2023-03-01T00:14:06;1.80;99.90
22491;DHT22;11412;50.802;4.350;2023-03-01T00:16:35;1.90;99.90
22491;DHT22;11412;50.802;4.350;2023-03-01T00:19:02;1.90;99.90
22491;DHT22;11412;50.802;4.350;2023-03-01T00:21:27;1.90;99.90
22491;DHT22;11412;50.802;4.350;2023-03-01T00:23:54;1.80;99.90
22491;DHT22;11412;50.802;4.350;2023-03-01T00:26:22;1.70;99.90
22491;DHT22;11412;50.802;4.350;2023-03-01T00:28:48;1.50;99.90
22491;DHT22;11412;50.802;4.350;2023-03-01T00:31:16;1.50;99.90
22491;DHT22;11412;50.802;4.350;2023-03-01T00:33:43;1.60;99.90
22491;DHT22;11412;50.802;4.350;2023-03-01T00:36:12;1.40;99.90
22491;DHT22;11412;50.802;4.350;2023-03-01T00:38:40;1.40;99.90
22491;DHT22;11412;50.802;4.350;2023-03-01T00:41:08;1.30;99.90
22491;DHT22;11412;50.802;4.350;2023-03-01T00:43:34;1.40;99.90
22491;DHT22;11412;50.802;4.350;2023-03-01T00:46:05;1.30;99.90
22491;DHT22;11412;50.802;4.350;2023-03-01T00:48:32;1.20;99.90
22491;DHT22;11412;50.802;4.350;2023-03-01T00:53:35;1.20;99.90
22491;DHT22;11412;50.802;4.350;2023-03-01T00:56:02;1.20;99.90
22491;DHT22;11412;50.802;4.350;2023-03-01T00:58:28;1.20;99.90
22491;DHT22;11412;50.802;4.350;2023-03-01T01:00:54;1.10;99.90
22491;DHT22;11412;50.802;4.350;2023-03-01T01:03:20;1.10;99.90
22491;DHT22;11412;50.802;4.350;2023-03-01T01:05:46;1.20;99.90
22491;DHT22;11412;50.802;4.350;2023-03-01T01:08:12;1.10;99.90
22491;DHT22;11412;50.802;4.350;2023-03-01T01:10:37;1.20;99.90
22491;DHT22;11412;50.802;4.350;2023-03-01T01:13:03;1.20;99.90
22491;DHT22;11412;50.802;4.350;2023-03-01T01:15:33;1.10;99.90
22491;DHT22;11412;50.802;4.350;2023-03-01T01:17:59;1.20;99.90
22491;DHT22;11412;50.802;4.350;2023-03-01T01:20:24;1.10;99.90
22491;DHT22;11412;50.802;4.350;2023-03-01T01:22:50;1.10;99.90
22491;DHT22;11412;50.802;4.350;2023-03-01T01:25:17;1.10;99.90
22491;DHT22;11412;50.802;4.350;2023-03-01T01:27:42;1.10;99.90
22491;DHT22;11412;50.802;4.350;2023-03-01T01:30:09;1.10;99.90
22491;DHT22;11412;50.802;4.350;2023-03-01T01:32:34;1.20;99.90
22491;DHT22;11412;50.802;4.350;2023-03-01T01:35:00;1.20;99.90
22491;DHT22;11412;50.802;4.350;2023-03-01T01:37:26;1.30;99.90
22491;DHT22;11412;50.802;4.350;2023-03-01T01:39:59;1.30;99.90
22491;DHT22;11412;50.802;4.350;2023-03-01T01:42:26;1.30;99.90
22491;DHT22;11412;50.802;4.350;2023-03-01T01:47:58;1.40;99.90
22491;DHT22;11412;50.802;4.350;2023-03-01T01:50:25;1.30;99.90
22491;DHT22;11412;50.802;4.350;2023-03-01T01:52:53;1.30;99.90
22491;DHT22;11412;50.802;4.350;2023-03-01T01:55:22;1.30;99.90
22491;DHT22;11412;50.802;4.350;2023-03-01T01:57:52;1.40;99.90
22491;DHT22;11412;50.802;4.350;2023-03-01T02:00:23;1.40;99.90
22491;DHT22;11412;50.802;4.350;2023-03-01T02:02:54;1.20;99.90
22491;DHT22;11412;50.802;4.350;2023-03-01T02:08:01;1.20;99.90
22491;DHT22;11412;50.802;4.350;2023-03-01T02:10:28;1.30;99.90
22491;DHT22;11412;50.802;4.350;2023-03-01T02:12:54;1.30;99.90
22491;DHT22;11412;50.802;4.350;2023-03-01T02:15:23;1.20;99.90
22491;DHT22;11412;50.802;4.350;2023-03-01T02:17:49;1.40;99.90
22491;DHT22;11412;50.802;4.350;2023-03-01T02:22:46;1.40;99.90
22491;DHT22;11412;50.802;4.350;2023-03-01T02:25:32;1.40;99.90
22491;DHT22;11412;50.802;4.350;2023-03-01T02:30:41;1.40;99.90
22491;DHT22;11412;50.802;4.350;2023-03-01T02:33:28;1.20;99.90
22491;DHT22;11412;50.802;4.350;2023-03-01T02:35:59;1.20;99.90
22491;DHT22;11412;50.802;4.350;2023-03-01T02:38:26;1.10;99.90
22491;DHT22;11412;50.802;4.350;2023-03-01T02:40:52;1.00;99.90
22491;DHT22;11412;50.802;4.350;2023-03-01T02:43:21;1.00;99.90
22491;DHT22;11412;50.802;4.350;2023-03-01T02:45:52;1.00;99.90
22491;DHT22;11412;50.802;4.350;2023-03-01T02:48:19;1.00;99.90
22491;DHT22;11412;50.802;4.350;2023-03-01T02:54:13;0.90;99.90
22491;DHT22;11412;50.802;4.350;2023-03-01T02:56:41;0.90;99.90
22491;DHT22;11412;50.802;4.350;2023-03-01T02:59:08;0.90;99.90
22491;DHT22;11412;50.802;4.350;2023-03-01T03:01:35;1.00;99.90
22491;DHT22;11412;50.802;4.350;2023-03-01T03:04:05;0.90;99.90
22491;DHT22;11412;50.802;4.350;2023-03-01T03:06:32;0.90;99.90
22491;DHT22;11412;50.802;4.350;2023-03-01T03:08:58;1.10;99.90
22491;DHT22;11412;50.802;4.350;2023-03-01T03:11:23;1.00;99.90
22491;DHT22;11412;50.802;4.350;2023-03-01T03:13:49;0.90;99.90
22491;DHT22;11412;50.802;4.350;2023-03-01T03:16:15;0.80;99.90
22491;DHT22;11412;50.802;4.350;2023-03-01T03:18:40;0.80;99.90
22491;DHT22;11412;50.802;4.350;2023-03-01T03:21:11;0.80;99.90
22491;DHT22;11412;50.802;4.350;2023-03-01T03:23:37;0.70;99.90
22491;DHT22;11412;50.802;4.350;2023-03-01T03:26:04;0.70;99.90
22491;DHT22;11412;50.802;4.350;2023-03-01T03:28:31;0.60;99.90
22491;DHT22;11412;50.802;4.350;2023-03-01T03:30:57;0.50;99.90
22491;DHT22;11412;50.802;4.350;2023-03-01T03:33:24;0.50;99.90
22491;DHT22;11412;50.802;4.350;2023-03-01T03:35:50;0.60;99.90
22491;DHT22;11412;50.802;4.350;2023-03-01T03:38:18;0.80;99.90
22491;DHT22;11412;50.802;4.350;2023-03-01T03:40:51;0.70;99.90
22491;DHT22;11412;50.802;4.350;2023-03-01T03:43:20;0.70;99.90
22491;DHT22;11412;50.802;4.350;2023-03-01T03:45:50;0.60;99.90
22491;DHT22;11412;50.802;4.350;2023-03-01T03:48:16;0.60;99.90
22491;DHT22;11412;50.802;4.350;2023-03-01T03:50:47;0.60;99.90
22491;DHT22;11412;50.802;4.350;2023-03-01T03:53:14;0.60;99.90
22491;DHT22;11412;50.802;4.350;2023-03-01T03:55:39;0.60;99.90
22491;DHT22;11412;50.802;4.350;2023-03-01T03:58:07;0.50;99.90
22491;DHT22;11412;50.802;4.350;2023-03-01T04:00:35;0.70;99.90
22491;DHT22;11412;50.802;4.350;2023-03-01T04:03:01;0.70;99.90
22491;DHT22;11412;50.802;4.350;2023-03-01T04:05:27;0.70;99.90
22491;DHT22;11412;50.802;4.350;2023-03-01T04:07:53;0.60;99.90
22491;DHT22;11412;50.802;4.350;2023-03-01T04:10:30;0.60;99.90
22491;DHT22;11412;50.802;4.350;2023-03-01T04:12:57;0.60;99.90
22491;DHT22;11412;50.802;4.350;2023-03-01T04:15:24;0.70;99.90
22491;DHT22;11412;50.802;4.350;2023-03-01T04:17:51;0.80;99.90
22491;DHT22;11412;50.802;4.350;2023-03-01T04:20:23;0.90;99.90
22491;DHT22;11412;50.802;4.350;2023-03-01T04:23:04;0.80;99.90
22491;DHT22;11412;50.802;4.350;2023-03-01T04:25:40;0.70;99.90
22491;DHT22;11412;50.802;4.350;2023-03-01T04:28:07;0.70;99.90
22491;DHT22;11412;50.802;4.350;2023-03-01T04:30:33;0.70;99.90
22491;DHT22;11412;50.802;4.350;2023-03-01T04:33:02;0.70;99.90
22491;DHT22;11412;50.802;4.350;2023-03-01T04:35:29;0.60;99.90
22491;DHT22;11412;50.802;4.350;2023-03-01T04:37:55;0.60;99.90
22491;DHT22;11412;50.802;4.350;2023-03-01T04:40:21;0.50;99.90
22491;DHT22;11412;50.802;4.350;2023-03-01T04:42:46;0.70;99.90
22491;DHT22;11412;50.802;4.350;2023-03-01T04:45:12;0.70;99.90
22491;DHT22;11412;50.802;4.350;2023-03-01T04:47:42;0.60;99.90
22491;DHT22;11412;50.802;4.350;2023-03-01T04:50:11;0.60;99.90
22491;DHT22;11412;50.802;4.350;2023-03-01T04:52:38;0.60;99.90
22491;DHT22;11412;50.802;4.350;2023-03-01T04:55:04;0.60;99.90
22491;DHT22;11412;50.802;4.350;2023-03-01T04:57:31;0.60;99.90
22491;DHT22;11412;50.802;4.350;2023-03-01T04:59:57;0.60;99.90
22491;DHT22;11412;50.802;4.350;2023-03-01T05:02:23;0.70;99.90
22491;DHT22;11412;50.802;4.350;2023-03-01T05:04:49;0.80;99.90
22491;DHT22;11412;50.802;4.350;2023-03-01T05:07:14;0.70;99.90
22491;DHT22;11412;50.802;4.350;2023-03-01T05:09:45;0.50;99.90
22491;DHT22;11412;50.802;4.350;2023-03-01T05:12:11;0.60;99.90
22491;DHT22;11412;50.802;4.350;2023-03-01T05:14:37;0.80;99.90
22491;DHT22;11412;50.802;4.350;2023-03-01T05:17:04;0.80;99.90
22491;DHT22;11412;50.802;4.350;2023-03-01T05:19:30;0.70;99.90
22491;DHT22;11412;50.802;4.350;2023-03-01T05:21:57;0.60;99.90
22491;DHT22;11412;50.802;4.350;2023-03-01T05:24:33;0.50;99.90
22491;DHT22;11412;50.802;4.350;2023-03-01T05:27:00;0.70;99.90
22491;DHT22;11412;50.802;4.350;2023-03-01T05:29:27;0.70;99.90
22491;DHT22;11412;50.802;4.350;2023-03-01T05:31:56;0.60;99.90
22491;DHT22;11412;50.802;4.350;2023-03-01T05:34:28;0.70;99.90
22491;DHT22;11412;50.802;4.350;2023-03-01T05:36:54;0.70;99.90
22491;DHT22;11412;50.802;4.350;2023-03-01T05:39:21;0.50;99.90
22491;DHT22;11412;50.802;4.350;2023-03-01T05:41:48;0.60;99.90
22491;DHT22;11412;50.802;4.350;2023-03-01T05:44:13;0.60;99.90
22491;DHT22;11412;50.802;4.350;2023-03-01T05:46:39;0.60;99.90
22491;DHT22;11412;50.802;4.350;2023-03-01T05:49:05;0.50;99.90
22491;DHT22;11412;50.802;4.350;2023-03-01T05:51:30;0.50;99.90
22491;DHT22;11412;50.802;4.350;2023-03-01T05:53:56;0.50;99.90
22491;DHT22;11412;50.802;4.350;2023-03-01T05:56:22;0.50;99.90
22491;DHT22;11412;50.802;4.350;2023-03-01T05:58:51;0.30;99.90
22491;DHT22;11412;50.802;4.350;2023-03-01T06:01:16;0.30;99.90
22491;DHT22;11412;50.802;4.350;2023-03-01T06:03:42;0.30;99.90
22491;DHT22;11412;50.802;4.350;2023-03-01T06:06:08;0.30;99.90
22491;DHT22;11412;50.802;4.350;2023-03-01T06:08:33;0.20;99.90
22491;DHT22;11412;50.802;4.350;2023-03-01T06:10:59;0.20;99.90
22491;DHT22;11412;50.802;4.350;2023-03-01T06:13:25;0.30;99.90
22491;DHT22;11412;50.802;4.350;2023-03-01T06:15:51;0.30;99.90
22491;DHT22;11412;50.802;4.350;2023-03-01T06:18:17;0.40;99.90
22491;DHT22;11412;50.802;4.350;2023-03-01T06:20:42;0.30;99.90
22491;DHT22;11412;50.802;4.350;2023-03-01T06:23:08;0.30;99.90
22491;DHT22;11412;50.802;4.350;2023-03-01T06:25:34;0.20;99.90
22491;DHT22;11412;50.802;4.350;2023-03-01T06:28:00;0.20;99.90
22491;DHT22;11412;50.802;4.350;2023-03-01T06:30:26;0.30;99.90
22491;DHT22;11412;50.802;4.350;2023-03-01T06:32:52;0.30;99.90
22491;DHT22;11412;50.802;4.350;2023-03-01T06:35:18;0.40;99.90
22491;DHT22;11412;50.802;4.350;2023-03-01T06:37:46;0.40;99.90
22491;DHT22;11412;50.802;4.350;2023-03-01T06:40:12;0.30;99.90
22491;DHT22;11412;50.802;4.350;2023-03-01T06:42:42;0.30;99.90
22491;DHT22;11412;50.802;4.350;2023-03-01T06:45:08;0.40;99.90
22491;DHT22;11412;50.802;4.350;2023-03-01T06:47:34;0.40;99.90
22491;DHT22;11412;50.802;4.350;2023-03-01T06:50:01;0.40;99.90
22491;DHT22;11412;50.802;4.350;2023-03-01T06:52:26;0.50;99.90
22491;DHT22;11412;50.802;4.350;2023-03-01T06:54:52;0.30;99.90
22491;DHT22;11412;50.802;4.350;2023-03-01T06:57:18;0.40;99.90
22491;DHT22;11412;50.802;4.350;2023-03-01T06:59:44;0.50;99.90
22491;DHT22;11412;50.802;4.350;2023-03-01T07:02:11;0.60;99.90
22491;DHT22;11412;50.802;4.350;2023-03-01T07:04:37;0.50;99.90
22491;DHT22;11412;50.802;4.350;2023-03-01T07:07:03;0.50;99.90
22491;DHT22;11412;50.802;4.350;2023-03-01T07:09:29;0.50;99.90
22491;DHT22;11412;50.802;4.350;2023-03-01T07:11:54;0.50;99.90
22491;DHT22;11412;50.802;4.350;2023-03-01T07:14:21;0.60;99.90
22491;DHT22;11412;50.802;4.350;2023-03-01T07:16:47;0.40;99.90
22491;DHT22;11412;50.802;4.350;2023-03-01T07:19:13;0.40;99.90
22491;DHT22;11412;50.802;4.350;2023-03-01T07:21:38;0.50;99.90
22491;DHT22;11412;50.802;4.350;2023-03-01T07:24:06;0.50;99.90
22491;DHT22;11412;50.802;4.350;2023-03-01T07:26:32;0.50;99.90
22491;DHT22;11412;50.802;4.350;2023-03-01T07:29:03;0.60;99.90
22491;DHT22;11412;50.802;4.350;2023-03-01T07:31:29;0.60;99.90
22491;DHT22;11412;50.802;4.350;2023-03-01T07:33:55;0.60;99.90
22491;DHT22;11412;50.802;4.350;2023-03-01T07:36:21;0.60;99.90
22491;DHT22;11412;50.802;4.350;2023-03-01T07:38:46;0.60;99.90
22491;DHT22;11412;50.802;4.350;2023-03-01T07:41:12;0.60;99.90
22491;DHT22;11412;50.802;4.350;2023-03-01T07:43:38;0.80;99.90
22491;DHT22;11412;50.802;4.350;2023-03-01T07:46:04;0.90;99.90
22491;DHT22;11412;50.802;4.350;2023-03-01T07:48:30;1.00;99.90
22491;DHT22;11412;50.802;4.350;2023-03-01T07:51:05;1.00;99.90
22491;DHT22;11412;50.802;4.350;2023-03-01T07:53:31;1.30;99.90
22491;DHT22;11412;50.802;4.350;2023-03-01T07:56:10;1.20;99.90
22491;DHT22;11412;50.802;4.350;2023-03-01T07:58:38;1.10;99.90
22491;DHT22;11412;50.802;4.350;2023-03-01T08:01:06;1.20;99.90
22491;DHT22;11412;50.802;4.350;2023-03-01T08:03:32;1.30;99.90
22491;DHT22;11412;50.802;4.350;2023-03-01T08:06:03;1.30;99.90
22491;DHT22;11412;50.802;4.350;2023-03-01T08:08:29;1.30;99.90
22491;DHT22;11412;50.802;4.350;2023-03-01T08:10:59;1.40;99.90
22491;DHT22;11412;50.802;4.350;2023-03-01T08:13:24;1.40;99.90
22491;DHT22;11412;50.802;4.350;2023-03-01T08:15:50;1.70;99.90
22491;DHT22;11412;50.802;4.350;2023-03-01T08:18:18;1.90;99.90
22491;DHT22;11412;50.802;4.350;2023-03-01T08:20:44;1.90;99.90
22491;DHT22;11412;50.802;4.350;2023-03-01T08:23:09;2.70;99.90
22491;DHT22;11412;50.802;4.350;2023-03-01T08:25:35;3.50;99.90
22491;DHT22;11412;50.802;4.350;2023-03-01T08:28:01;4.00;99.90
22491;DHT22;11412;50.802;4.350;2023-03-01T08:30:27;3.70;99.90
22491;DHT22;11412;50.802;4.350;2023-03-01T08:32:52;3.40;99.90
22491;DHT22;11412;50.802;4.350;2023-03-01T08:35:19;3.40;99.90
22491;DHT22;11412;50.802;4.350;2023-03-01T08:37:45;3.30;99.90
22491;DHT22;11412;50.802;4.350;2023-03-01T08:40:11;3.40;99.90
22491;DHT22;11412;50.802;4.350;2023-03-01T08:42:39;4.30;99.90
22491;DHT22;11412;50.802;4.350;2023-03-01T08:45:05;5.40;99.90
22491;DHT22;11412;50.802;4.350;2023-03-01T08:47:31;6.00;99.90
22491;DHT22;11412;50.802;4.350;2023-03-01T08:49:59;6.90;99.90
22491;DHT22;11412;50.802;4.350;2023-03-01T08:52:25;6.60;99.90
22491;DHT22;11412;50.802;4.350;2023-03-01T08:54:51;6.90;99.90
22491;DHT22;11412;50.802;4.350;2023-03-01T08:57:17;7.20;99.90
22491;DHT22;11412;50.802;4.350;2023-03-01T08:59:43;7.30;99.90
22491;DHT22;11412;50.802;4.350;2023-03-01T09:02:12;7.10;99.90
22491;DHT22;11412;50.802;4.350;2023-03-01T09:04:38;6.50;99.90
22491;DHT22;11412;50.802;4.350;2023-03-01T09:07:04;6.20;99.90
22491;DHT22;11412;50.802;4.350;2023-03-01T09:09:29;6.10;99.90
22491;DHT22;11412;50.802;4.350;2023-03-01T09:11:55;6.30;99.90
22491;DHT22;11412;50.802;4.350;2023-03-01T09:14:21;6.90;99.90
22491;DHT22;11412;50.802;4.350;2023-03-01T09:16:47;7.90;99.90
22491;DHT22;11412;50.802;4.350;2023-03-01T09:19:13;7.80;99.90
22491;DHT22;11412;50.802;4.350;2023-03-01T09:21:39;7.70;99.90
22491;DHT22;11412;50.802;4.350;2023-03-01T09:24:05;6.80;99.90
22491;DHT22;11412;50.802;4.350;2023-03-01T09:26:32;6.60;99.90
22491;DHT22;11412;50.802;4.350;2023-03-01T09:28:57;6.80;99.90
22491;DHT22;11412;50.802;4.350;2023-03-01T09:31:24;7.00;99.90
22491;DHT22;11412;50.802;4.350;2023-03-01T09:33:52;7.40;99.90
22491;DHT22;11412;50.802;4.350;2023-03-01T09:36:21;7.50;99.90
22491;DHT22;11412;50.802;4.350;2023-03-01T09:38:47;7.70;99.90
22491;DHT22;11412;50.802;4.350;2023-03-01T09:41:48;7.30;99.90
22491;DHT22;11412;50.802;4.350;2023-03-01T09:44:26;7.70;99.90
22491;DHT22;11412;50.802;4.350;2023-03-01T09:46:53;8.30;99.90
22491;DHT22;11412;50.802;4.350;2023-03-01T09:49:23;7.90;99.90
22491;DHT22;11412;50.802;4.350;2023-03-01T09:52:21;7.70;99.90
22491;DHT22;11412;50.802;4.350;2023-03-01T09:54:54;9.00;99.90
22491;DHT22;11412;50.802;4.350;2023-03-01T10:02:39;9.20;99.90
22491;DHT22;11412;50.802;4.350;2023-03-01T10:08:13;8.40;99.90
22491;DHT22;11412;50.802;4.350;2023-03-01T10:10:46;7.60;99.90
22491;DHT22;11412;50.802;4.350;2023-03-01T10:13:25;7.10;99.90
22491;DHT22;11412;50.802;4.350;2023-03-01T10:16:16;7.40;99.90
22491;DHT22;11412;50.802;4.350;2023-03-01T10:18:48;8.20;99.90
22491;DHT22;11412;50.802;4.350;2023-03-01T10:21:20;8.70;99.90
22491;DHT22;11412;50.802;4.350;2023-03-01T10:23:46;9.30;99.90
22491;DHT22;11412;50.802;4.350;2023-03-01T10:27:09;9.70;99.90
22491;DHT22;11412;50.802;4.350;2023-03-01T10:29:57;10.00;99.90
22491;DHT22;11412;50.802;4.350;2023-03-01T10:32:19;10.30;99.90
22491;DHT22;11412;50.802;4.350;2023-03-01T10:34:47;10.10;99.90
22491;DHT22;11412;50.802;4.350;2023-03-01T10:37:18;9.70;99.90
22491;DHT22;11412;50.802;4.350;2023-03-01T10:40:14;9.90;99.90
22491;DHT22;11412;50.802;4.350;2023-03-01T10:42:49;9.50;99.90
22491;DHT22;11412;50.802;4.350;2023-03-01T10:45:37;9.90;99.90
22491;DHT22;11412;50.802;4.350;2023-03-01T10:48:05;10.50;99.90
22491;DHT22;11412;50.802;4.350;2023-03-01T10:50:31;11.10;99.90
22491;DHT22;11412;50.802;4.350;2023-03-01T10:53:00;10.90;99.90
22491;DHT22;11412;50.802;4.350;2023-03-01T10:55:39;10.80;99.90
22491;DHT22;11412;50.802;4.350;2023-03-01T11:00:53;10.40;99.90
22491;DHT22;11412;50.802;4.350;2023-03-01T11:03:27;9.70;99.90
22491;DHT22;11412;50.802;4.350;2023-03-01T11:05:59;9.40;99.90
22491;DHT22;11412;50.802;4.350;2023-03-01T11:08:45;9.10;99.90
22491;DHT22;11412;50.802;4.350;2023-03-01T11:13:40;9.80;99.90
22491;DHT22;11412;50.802;4.350;2023-03-01T11:16:13;9.70;99.90
22491;DHT22;11412;50.802;4.350;2023-03-01T11:18:38;9.30;99.90
22491;DHT22;11412;50.802;4.350;2023-03-01T11:21:05;9.30;99.90
22491;DHT22;11412;50.802;4.350;2023-03-01T11:23:34;9.60;99.90
22491;DHT22;11412;50.802;4.350;2023-03-01T11:26:07;9.90;99.90
22491;DHT22;11412;50.802;4.350;2023-03-01T11:28:38;10.10;99.90
22491;DHT22;11412;50.802;4.350;2023-03-01T11:31:07;10.40;99.90
22491;DHT22;11412;50.802;4.350;2023-03-01T11:36:24;10.50;99.90
22491;DHT22;11412;50.802;4.350;2023-03-01T11:38:53;10.10;99.90
22491;DHT22;11412;50.802;4.350;2023-03-01T11:41:23;10.10;99.90
22491;DHT22;11412;50.802;4.350;2023-03-01T11:43:55;9.70;99.90
22491;DHT22;11412;50.802;4.350;2023-03-01T11:46:58;10.50;99.90
22491;DHT22;11412;50.802;4.350;2023-03-01T11:52:32;10.30;99.90
22491;DHT22;11412;50.802;4.350;2023-03-01T11:55:41;10.70;99.90
22491;DHT22;11412;50.802;4.350;2023-03-01T12:06:48;10.20;99.90
22491;DHT22;11412;50.802;4.350;2023-03-01T12:12:26;11.90;99.90
22491;DHT22;11412;50.802;4.350;2023-03-01T12:17:44;12.40;98.90
22491;DHT22;11412;50.802;4.350;2023-03-01T12:20:21;12.80;98.80
22491;DHT22;11412;50.802;4.350;2023-03-01T12:28:30;12.50;97.10
22491;DHT22;11412;50.802;4.350;2023-03-01T12:44:47;10.70;99.90
22491;DHT22;11412;50.802;4.350;2023-03-01T12:50:02;11.40;99.90
22491;DHT22;11412;50.802;4.350;2023-03-01T12:52:49;11.70;99.40
22491;DHT22;11412;50.802;4.350;2023-03-01T12:55:38;12.40;99.60
22491;DHT22;11412;50.802;4.350;2023-03-01T12:58:28;11.90;97.80
22491;DHT22;11412;50.802;4.350;2023-03-01T13:01:05;11.80;99.50
22491;DHT22;11412;50.802;4.350;2023-03-01T13:11:56;11.20;99.70
22491;DHT22;11412;50.802;4.350;2023-03-01T13:16:54;11.50;98.80
22491;DHT22;11412;50.802;4.350;2023-03-01T13:21:47;11.20;99.00
22491;DHT22;11412;50.802;4.350;2023-03-01T13:29:47;11.20;99.20
22491;DHT22;11412;50.802;4.350;2023-03-01T13:32:22;10.70;97.90
22491;DHT22;11412;50.802;4.350;2023-03-01T13:34:50;10.10;99.00
22491;DHT22;11412;50.802;4.350;2023-03-01T13:37:25;9.80;99.70
22491;DHT22;11412;50.802;4.350;2023-03-01T13:39:51;9.90;99.90
22491;DHT22;11412;50.802;4.350;2023-03-01T13:42:39;10.50;99.80
22491;DHT22;11412;50.802;4.350;2023-03-01T13:47:53;11.50;98.10
22491;DHT22;11412;50.802;4.350;2023-03-01T13:50:23;11.80;98.50
22491;DHT22;11412;50.802;4.350;2023-03-01T13:53:05;11.50;98.40
22491;DHT22;11412;50.802;4.350;2023-03-01T13:55:41;11.50;98.10
22491;DHT22;11412;50.802;4.350;2023-03-01T13:58:23;11.40;98.20
22491;DHT22;11412;50.802;4.350;2023-03-01T14:01:04;11.30;97.50
22491;DHT22;11412;50.802;4.350;2023-03-01T14:03:32;10.80;98.20
22491;DHT22;11412;50.802;4.350;2023-03-01T14:06:08;10.50;98.70
22491;DHT22;11412;50.802;4.350;2023-03-01T14:08:37;11.10;98.50
22491;DHT22;11412;50.802;4.350;2023-03-01T14:13:58;11.40;97.20
22491;DHT22;11412;50.802;4.350;2023-03-01T14:19:30;12.40;97.20
22491;DHT22;11412;50.802;4.350;2023-03-01T14:22:22;13.40;95.90
22491;DHT22;11412;50.802;4.350;2023-03-01T14:28:17;13.50;95.00
22491;DHT22;11412;50.802;4.350;2023-03-01T14:30:45;12.60;95.30
22491;DHT22;11412;50.802;4.350;2023-03-01T14:35:58;13.50;95.20
22491;DHT22;11412;50.802;4.350;2023-03-01T14:41:06;12.10;96.00
22491;DHT22;11412;50.802;4.350;2023-03-01T14:43:33;12.00;96.60
22491;DHT22;11412;50.802;4.350;2023-03-01T14:45:59;11.90;97.10
22491;DHT22;11412;50.802;4.350;2023-03-01T14:48:25;11.80;97.20
22491;DHT22;11412;50.802;4.350;2023-03-01T14:50:52;12.30;96.20
22491;DHT22;11412;50.802;4.350;2023-03-01T14:55:58;11.80;96.20
22491;DHT22;11412;50.802;4.350;2023-03-01T14:58:25;11.90;96.30
22491;DHT22;11412;50.802;4.350;2023-03-01T15:00:54;12.00;96.60
22491;DHT22;11412;50.802;4.350;2023-03-01T15:03:45;12.40;97.00
22491;DHT22;11412;50.802;4.350;2023-03-01T15:06:15;12.00;96.50
22491;DHT22;11412;50.802;4.350;2023-03-01T15:08:46;12.10;96.20
22491;DHT22;11412;50.802;4.350;2023-03-01T15:11:29;11.60;96.60
22491;DHT22;11412;50.802;4.350;2023-03-01T15:13:56;11.90;96.50
22491;DHT22;11412;50.802;4.350;2023-03-01T15:16:40;11.50;97.80
22491;DHT22;11412;50.802;4.350;2023-03-01T15:19:16;12.20;97.50
22491;DHT22;11412;50.802;4.350;2023-03-01T15:21:46;12.00;96.40
22491;DHT22;11412;50.802;4.350;2023-03-01T15:26:53;11.10;96.60
22491;DHT22;11412;50.802;4.350;2023-03-01T15:29:23;10.90;97.40
22491;DHT22;11412;50.802;4.350;2023-03-01T15:32:05;10.80;97.30
22491;DHT22;11412;50.802;4.350;2023-03-01T15:34:35;10.40;98.10
22491;DHT22;11412;50.802;4.350;2023-03-01T15:37:04;10.20;98.40
22491;DHT22;11412;50.802;4.350;2023-03-01T15:39:38;9.90;98.80
22491;DHT22;11412;50.802;4.350;2023-03-01T15:42:51;9.60;98.80
22491;DHT22;11412;50.802;4.350;2023-03-01T15:47:48;9.40;99.50
22491;DHT22;11412;50.802;4.350;2023-03-01T15:50:28;9.40;99.80
22491;DHT22;11412;50.802;4.350;2023-03-01T15:52:56;9.20;99.90
22491;DHT22;11412;50.802;4.350;2023-03-01T15:55:26;9.50;99.90
22491;DHT22;11412;50.802;4.350;2023-03-01T15:58:12;9.30;99.80
22491;DHT22;11412;50.802;4.350;2023-03-01T16:00:38;9.10;99.90
22491;DHT22;11412;50.802;4.350;2023-03-01T16:03:05;8.90;99.90
22491;DHT22;11412;50.802;4.350;2023-03-01T16:05:35;8.80;99.90
22491;DHT22;11412;50.802;4.350;2023-03-01T16:08:02;9.00;99.90
22491;DHT22;11412;50.802;4.350;2023-03-01T16:10:28;9.00;99.90
22491;DHT22;11412;50.802;4.350;2023-03-01T16:12:55;8.80;99.90
22491;DHT22;11412;50.802;4.350;2023-03-01T16:15:27;8.80;99.90
22491;DHT22;11412;50.802;4.350;2023-03-01T16:17:52;8.80;99.90
22491;DHT22;11412;50.802;4.350;2023-03-01T16:20:18;8.50;99.90
22491;DHT22;11412;50.802;4.350;2023-03-01T16:22:45;8.60;99.90
22491;DHT22;11412;50.802;4.350;2023-03-01T16:25:17;8.40;99.90
22491;DHT22;11412;50.802;4.350;2023-03-01T16:27:45;8.40;99.90
22491;DHT22;11412;50.802;4.350;2023-03-01T16:30:12;8.40;99.90
22491;DHT22;11412;50.802;4.350;2023-03-01T16:32:39;8.30;99.90
22491;DHT22;11412;50.802;4.350;2023-03-01T16:35:06;8.10;99.90
22491;DHT22;11412;50.802;4.350;2023-03-01T16:37:33;8.10;99.90
22491;DHT22;11412;50.802;4.350;2023-03-01T16:39:59;8.10;99.90
22491;DHT22;11412;50.802;4.350;2023-03-01T16:42:25;8.00;99.90
22491;DHT22;11412;50.802;4.350;2023-03-01T16:44:57;7.80;99.90
22491;DHT22;11412;50.802;4.350;2023-03-01T16:47:23;7.70;99.90
22491;DHT22;11412;50.802;4.350;2023-03-01T16:49:52;7.70;99.90
22491;DHT22;11412;50.802;4.350;2023-03-01T16:52:18;7.80;99.90
22491;DHT22;11412;50.802;4.350;2023-03-01T16:54:44;7.80;99.90
22491;DHT22;11412;50.802;4.350;2023-03-01T16:57:10;7.70;99.90
22491;DHT22;11412;50.802;4.350;2023-03-01T16:59:36;7.70;99.90
22491;DHT22;11412;50.802;4.350;2023-03-01T17:02:03;7.50;99.90
22491;DHT22;11412;50.802;4.350;2023-03-01T17:04:29;7.30;99.90
22491;DHT22;11412;50.802;4.350;2023-03-01T17:06:54;7.10;99.90
22491;DHT22;11412;50.802;4.350;2023-03-01T17:09:20;7.10;99.90
22491;DHT22;11412;50.802;4.350;2023-03-01T17:11:48;7.00;99.90
22491;DHT22;11412;50.802;4.350;2023-03-01T17:14:14;7.00;99.90
22491;DHT22;11412;50.802;4.350;2023-03-01T17:16:42;7.10;99.90
22491;DHT22;11412;50.802;4.350;2023-03-01T17:19:07;7.00;99.90
22491;DHT22;11412;50.802;4.350;2023-03-01T17:21:33;6.80;99.90
22491;DHT22;11412;50.802;4.350;2023-03-01T17:23:59;6.80;99.90
22491;DHT22;11412;50.802;4.350;2023-03-01T17:26:25;6.90;99.90
22491;DHT22;11412;50.802;4.350;2023-03-01T17:28:54;6.80;99.90
22491;DHT22;11412;50.802;4.350;2023-03-01T17:31:20;6.70;99.90
22491;DHT22;11412;50.802;4.350;2023-03-01T17:33:46;6.70;99.90
22491;DHT22;11412;50.802;4.350;2023-03-01T17:36:12;6.60;99.90
22491;DHT22;11412;50.802;4.350;2023-03-01T17:38:38;6.30;99.90
22491;DHT22;11412;50.802;4.350;2023-03-01T17:41:04;6.40;99.90
22491;DHT22;11412;50.802;4.350;2023-03-01T17:43:30;6.50;99.90
22491;DHT22;11412;50.802;4.350;2023-03-01T17:45:56;6.50;99.90
22491;DHT22;11412;50.802;4.350;2023-03-01T17:48:22;6.50;99.90
22491;DHT22;11412;50.802;4.350;2023-03-01T17:50:48;6.40;99.90
22491;DHT22;11412;50.802;4.350;2023-03-01T17:53:14;6.20;99.90